Time;durP1;ratioP1;P1;durP2;ratioP2;P2;SDS_P1;SDS_P2;PMS_P1;PMS_P2;Temp;Humidity;BMP_temperature;BMP_pressure;BME280_temperature;BME280_humidity;BME280_pressure;Samples;Min_cycle;Max_cycle;Signal;HPM_P1;HPM_P2
2023/10/15 00:00:25;;;;;;;;;;;;;;;15.34;100.00;98013.31;5100276;28;19956;-68
2023/10/15 00:02:52;;;;;;;;;;;;;;;15.37;100.00;98017.31;5100097;28;19925;-68
2023/10/15 00:05:19;;;;;;;;;;;;;;;15.43;100.00;98022.34;5101384;28;19959;-68
2023/10/15 00:07:47;;;;;;;;;;;;;;;15.44;100.00;98025.81;5095854;28;19924;-69
2023/10/15 00:10:15;;;;;;;;;;;;;;;15.40;100.00;98032.88;5101585;28;19967;-69
2023/10/15 00:12:43;;;;;;;;;;;;;;;15.40;100.00;98020.22;5099581;28;19946;-69
2023/10/15 00:15:14;;;;;;;;;;;;;;;15.40;100.00;98027.50;5100620;28;19924;-68
2023/10/15 00:17:42;;;;;;;;;;;;;;;15.41;100.00;98010.25;5103166;28;19924;-68
2023/10/15 00:20:10;;;;;;;;;;;;;;;15.37;100.00;98012.72;5102299;28;20068;-67
2023/10/15 00:22:37;;;;;;;;;;;;;;;15.27;100.00;98012.88;5098395;28;20010;-67
2023/10/15 00:25:08;;;;;;;;;;;;;;;15.34;100.00;98015.19;5098455;28;19936;-68
2023/10/15 00:27:36;;;;;;;;;;;;;;;15.33;100.00;98011.69;5103055;28;19924;-68
2023/10/15 00:30:05;;;;;;;;;;;;;;;15.34;100.00;98009.81;5102958;28;19995;-68
2023/10/15 00:32:32;;;;;;;;;;;;;;;15.30;100.00;98008.78;5098546;28;20393;-68
2023/10/15 00:34:59;;;;;;;;;;;;;;;15.32;100.00;98010.09;5100032;28;19924;-68
2023/10/15 00:37:25;;;;;;;;;;;;;;;15.31;100.00;98011.19;5095255;28;19959;-68
2023/10/15 00:39:52;;;;;;;;;;;;;;;15.28;100.00;98016.38;5102865;28;19924;-69
2023/10/15 00:42:18;;;;;;;;;;;;;;;15.27;100.00;98012.88;5100592;28;19924;-69
2023/10/15 00:44:47;;;;;;;;;;;;;;;15.27;100.00;98018.25;5098304;28;19932;-68
2023/10/15 00:47:16;;;;;;;;;;;;;;;15.26;100.00;98015.84;5100680;28;19964;-68
2023/10/15 00:49:42;;;;;;;;;;;;;;;15.24;100.00;98007.25;5101578;28;19924;-68
2023/10/15 00:52:10;;;;;;;;;;;;;;;15.16;100.00;98010.63;5101854;28;19924;-68
2023/10/15 00:54:38;;;;;;;;;;;;;;;15.09;100.00;98010.97;5099528;28;19955;-67
2023/10/15 00:57:25;;;;;;;;;;;;;;;15.05;100.00;98016.13;5099993;28;19932;-67
2023/10/15 00:59:54;;;;;;;;;;;;;;;15.01;100.00;98025.84;5102862;28;19999;-68
2023/10/15 01:02:23;;;;;;;;;;;;;;;14.99;100.00;98017.28;5098945;28;20398;-68
2023/10/15 01:04:50;;;;;;;;;;;;;;;14.96;100.00;98027.81;5099412;28;19931;-68
2023/10/15 01:07:33;;;;;;;;;;;;;;;15.00;100.00;98016.19;5093634;28;19983;-69
2023/10/15 01:10:00;;;;;;;;;;;;;;;14.91;100.00;98020.63;5102549;28;19924;-68
2023/10/15 01:12:32;;;;;;;;;;;;;;;14.89;100.00;98021.97;5099060;28;19963;-68
2023/10/15 01:15:00;;;;;;;;;;;;;;;14.99;100.00;98024.53;5099028;28;19950;-68
2023/10/15 01:17:27;;;;;;;;;;;;;;;14.96;100.00;98017.84;5102415;28;19924;-68
2023/10/15 01:19:54;;;;;;;;;;;;;;;15.00;100.00;98018.09;5102663;28;19924;-68
2023/10/15 01:22:22;;;;;;;;;;;;;;;14.98;100.00;98014.84;5099960;28;19931;-68
2023/10/15 01:24:53;;;;;;;;;;;;;;;15.00;100.00;98018.88;5099051;28;19924;-68
2023/10/15 01:27:27;;;;;;;;;;;;;;;14.85;100.00;98021.75;5101043;28;20413;-68
2023/10/15 01:29:55;;;;;;;;;;;;;;;14.92;100.00;98018.69;5102334;28;19924;-68
2023/10/15 01:32:22;;;;;;;;;;;;;;;14.95;100.00;98023.50;5099567;28;19978;-68
2023/10/15 01:34:50;;;;;;;;;;;;;;;14.94;100.00;98028.09;5098679;28;19970;-68
2023/10/15 01:37:24;;;;;;;;;;;;;;;14.94;100.00;98021.91;5093005;28;19924;-68
2023/10/15 01:39:52;;;;;;;;;;;;;;;14.89;100.00;98025.47;5102136;28;19997;-68
2023/10/15 01:42:34;;;;;;;;;;;;;;;14.88;100.00;98023.88;5099821;28;19967;-68
2023/10/15 01:45:13;;;;;;;;;;;;;;;14.90;100.00;98023.56;5102923;28;19975;-68
2023/10/15 01:47:46;;;;;;;;;;;;;;;14.85;100.00;98021.75;5096142;28;19924;-68
2023/10/15 01:50:15;;;;;;;;;;;;;;;14.87;100.00;98022.28;5103693;28;19965;-68
2023/10/15 01:52:42;;;;;;;;;;;;;;;14.85;100.00;98024.47;5105816;28;19974;-68
2023/10/15 01:55:12;;;;;;;;;;;;;;;14.83;100.00;98018.53;5105031;28;19924;-68
2023/10/15 01:57:41;;;;;;;;;;;;;;;14.83;100.00;98023.91;5102532;28;19935;-68
2023/10/15 02:00:14;;;;;;;;;;;;;;;14.84;100.00;98016.66;5103458;28;19932;-67
2023/10/15 02:02:40;;;;;;;;;;;;;;;14.79;100.00;98022.13;5105752;28;19931;-67
2023/10/15 02:05:16;;;;;;;;;;;;;;;14.73;100.00;98013.28;5105258;28;19920;-68
2023/10/15 02:07:43;;;;;;;;;;;;;;;14.71;100.00;98006.59;5095791;28;19932;-67
2023/10/15 02:10:13;;;;;;;;;;;;;;;14.69;100.00;98009.59;5104921;28;19924;-67
2023/10/15 02:12:40;;;;;;;;;;;;;;;14.72;100.00;98014.38;5102341;28;19996;-67
2023/10/15 02:15:14;;;;;;;;;;;;;;;14.71;100.00;98002.03;5102597;28;19924;-67
2023/10/15 02:17:43;;;;;;;;;;;;;;;14.73;100.00;98013.28;5105670;28;19920;-66
2023/10/15 02:20:13;;;;;;;;;;;;;;;14.72;100.00;98006.31;5104637;28;19950;-67
2023/10/15 02:22:39;;;;;;;;;;;;;;;14.71;100.00;98009.28;5101747;28;19963;-67
2023/10/15 02:25:06;;;;;;;;;;;;;;;14.67;100.00;98013.66;5102286;28;20007;-67
2023/10/15 02:27:35;;;;;;;;;;;;;;;14.64;100.00;98014.22;5105533;28;19977;-67
2023/10/15 02:30:04;;;;;;;;;;;;;;;14.65;100.00;98010.44;5105297;28;19924;-68
2023/10/15 02:32:31;;;;;;;;;;;;;;;14.55;100.00;98014.03;5094130;28;20447;-68
2023/10/15 02:34:58;;;;;;;;;;;;;;;14.55;100.00;98000.59;5102070;28;19929;-67
2023/10/15 02:37:26;;;;;;;;;;;;;;;14.54;100.00;97999.78;5097838;28;19992;-68
2023/10/15 02:39:53;;;;;;;;;;;;;;;14.55;100.00;98000.59;5105452;28;19939;-68
2023/10/15 02:42:20;;;;;;;;;;;;;;;14.56;100.00;98008.38;5102895;28;19969;-68
2023/10/15 02:44:50;;;;;;;;;;;;;;;14.57;100.00;98015.38;5102035;28;19932;-67
2023/10/15 02:47:28;;;;;;;;;;;;;;;14.53;100.00;98013.53;5102826;28;19947;-68
2023/10/15 02:49:59;;;;;;;;;;;;;;;14.55;100.00;98016.72;5105280;28;20520;-67
2023/10/15 02:52:35;;;;;;;;;;;;;;;14.54;100.00;98015.91;5102339;28;19958;-67
2023/10/15 02:55:05;;;;;;;;;;;;;;;14.54;100.00;98020.50;5101367;28;20319;-67
2023/10/15 02:57:37;;;;;;;;;;;;;;;14.50;100.00;98014.91;5093524;28;19930;-67
2023/10/15 03:00:12;;;;;;;;;;;;;;;14.52;100.00;98026.16;5101333;28;19931;-67
2023/10/15 03:02:43;;;;;;;;;;;;;;;14.52;100.00;98019.97;5104514;28;19920;-67
2023/10/15 03:05:13;;;;;;;;;;;;;;;14.48;100.00;98027.03;5103469;28;19967;-67
2023/10/15 03:07:42;;;;;;;;;;;;;;;14.43;100.00;98024.38;5093634;28;19931;-67
2023/10/15 03:10:09;;;;;;;;;;;;;;;14.46;100.00;98023.81;5103417;28;19924;-67
2023/10/15 03:12:36;;;;;;;;;;;;;;;14.42;100.00;98028.94;5100728;28;19943;-67
2023/10/15 03:15:08;;;;;;;;;;;;;;;14.31;100.00;98030.13;5101036;28;19935;-67
2023/10/15 03:17:40;;;;;;;;;;;;;;;14.29;100.00;98028.81;5104274;28;19934;-68
2023/10/15 03:20:11;;;;;;;;;;;;;;;14.31;100.00;98032.81;5103654;28;19924;-67
2023/10/15 03:22:38;;;;;;;;;;;;;;;14.31;100.00;98029.31;5100903;28;19947;-67
2023/10/15 03:25:13;;;;;;;;;;;;;;;14.34;100.00;98018.81;5100983;28;19932;-67
2023/10/15 03:27:39;;;;;;;;;;;;;;;14.35;100.00;98023.13;5104072;28;19923;-67
2023/10/15 03:30:09;;;;;;;;;;;;;;;14.35;100.00;98022.31;5103523;28;19931;-67
2023/10/15 03:32:41;;;;;;;;;;;;;;;14.27;100.00;98021.00;5100263;28;20277;-67
2023/10/15 03:35:16;;;;;;;;;;;;;;;14.31;100.00;98034.69;5100969;28;19967;-67
2023/10/15 03:37:45;;;;;;;;;;;;;;;14.29;100.00;98034.16;5096170;28;19924;-67
2023/10/15 03:40:13;;;;;;;;;;;;;;;14.25;100.00;98033.94;5102411;28;20331;-67
2023/10/15 03:42:40;;;;;;;;;;;;;;;14.25;100.00;98028.56;5100753;28;19982;-69
2023/10/15 03:45:09;;;;;;;;;;;;;;;14.25;100.00;98035.81;5100690;28;19924;-69
2023/10/15 03:47:39;;;;;;;;;;;;;;;14.23;100.00;98036.13;5103752;28;19930;-69
2023/10/15 03:50:08;;;;;;;;;;;;;;;14.16;100.00;98037.50;5103251;28;19927;-69
2023/10/15 03:52:35;;;;;;;;;;;;;;;14.18;100.00;98054.13;5100269;28;19936;-69
2023/10/15 03:55:02;;;;;;;;;;;;;;;14.21;100.00;98053.56;5100281;28;19924;-69
2023/10/15 03:57:34;;;;;;;;;;;;;;;14.11;100.00;98049.13;5091762;28;20474;-69
2023/10/15 04:00:01;;;;;;;;;;;;;;;14.11;100.00;98043.75;5100112;28;19951;-69
2023/10/15 04:02:38;;;;;;;;;;;;;;;14.06;100.00;98047.25;5103282;28;19928;-69
2023/10/15 04:05:11;;;;;;;;;;;;;;;13.94;100.00;98044.16;5103310;28;20024;-69
2023/10/15 04:07:46;;;;;;;;;;;;;;;13.95;100.00;98042.25;5092569;28;19942;-67
2023/10/15 04:10:13;;;;;;;;;;;;;;;13.90;100.00;98043.09;5102135;28;19954;-68
2023/10/15 04:12:43;;;;;;;;;;;;;;;13.88;100.00;98039.09;5099989;28;20281;-68
2023/10/15 04:15:14;;;;;;;;;;;;;;;13.91;100.00;98033.97;5100515;28;19925;-68
2023/10/15 04:17:41;;;;;;;;;;;;;;;13.93;100.00;98045.22;5102901;28;19924;-68
2023/10/15 04:20:09;;;;;;;;;;;;;;;13.95;100.00;98032.34;5102395;28;19990;-68
2023/10/15 04:22:44;;;;;;;;;;;;;;;13.98;100.00;98033.66;5099425;28;19931;-67
2023/10/15 04:25:23;;;;;;;;;;;;;;;13.98;100.00;98021.03;5100316;28;19925;-67
2023/10/15 04:27:49;;;;;;;;;;;;;;;13.96;100.00;98025.84;5102775;28;19924;-67
2023/10/15 04:30:16;;;;;;;;;;;;;;;13.98;100.00;98030.97;5101010;28;19924;-67
2023/10/15 04:32:46;;;;;;;;;;;;;;;13.95;100.00;98026.97;5099348;28;19947;-67
2023/10/15 04:35:18;;;;;;;;;;;;;;;13.94;100.00;98030.72;5100871;28;19925;-67
2023/10/15 04:37:48;;;;;;;;;;;;;;;13.95;100.00;98024.28;5094588;28;20387;-67
2023/10/15 04:40:22;;;;;;;;;;;;;;;13.92;100.00;98029.41;5101200;28;19932;-67
2023/10/15 04:42:49;;;;;;;;;;;;;;;13.92;100.00;98021.34;5099458;28;19950;-68
2023/10/15 04:45:23;;;;;;;;;;;;;;;13.91;100.00;98014.38;5101375;28;19980;-68
2023/10/15 04:47:52;;;;;;;;;;;;;;;13.87;100.00;98011.44;5102923;28;19950;-68
2023/10/15 04:50:21;;;;;;;;;;;;;;;13.86;100.00;98015.22;5100687;28;19924;-68
2023/10/15 04:52:47;;;;;;;;;;;;;;;13.87;100.00;98016.81;5099289;28;19928;-68
2023/10/15 04:55:16;;;;;;;;;;;;;;;13.84;100.00;98028.13;5099549;28;20614;-68
2023/10/15 04:57:44;;;;;;;;;;;;;;;13.84;100.00;98027.31;5102784;28;19924;-68
2023/10/15 05:00:11;;;;;;;;;;;;;;;13.81;100.00;98033.22;5101730;28;20402;-68
2023/10/15 05:02:37;;;;;;;;;;;;;;;13.71;100.00;98044.84;5099246;28;19947;-68
2023/10/15 05:05:05;;;;;;;;;;;;;;;13.61;100.00;98031.53;5099249;28;19936;-68
2023/10/15 05:07:33;;;;;;;;;;;;;;;13.67;100.00;98038.47;5094273;28;19924;-68
2023/10/15 05:09:59;;;;;;;;;;;;;;;13.62;100.00;98032.28;5102916;28;19924;-67
2023/10/15 05:12:26;;;;;;;;;;;;;;;13.62;100.00;98035.78;5099835;28;19924;-67
2023/10/15 05:14:53;;;;;;;;;;;;;;;13.64;100.00;98033.66;5099438;28;19928;-68
2023/10/15 05:17:20;;;;;;;;;;;;;;;13.62;100.00;98029.63;5101430;28;19924;-68
2023/10/15 05:19:52;;;;;;;;;;;;;;;13.67;100.00;98033.09;5106700;28;19987;-68
2023/10/15 05:22:19;;;;;;;;;;;;;;;13.70;100.00;98035.22;5104367;28;19946;-68
2023/10/15 05:24:47;;;;;;;;;;;;;;;13.70;100.00;98029.03;5102068;28;19924;-68
2023/10/15 05:27:13;;;;;;;;;;;;;;;13.69;100.00;98025.53;5104111;28;20109;-68
2023/10/15 05:29:40;;;;;;;;;;;;;;;13.64;100.00;98027.47;5106227;28;20458;-68
2023/10/15 05:32:06;;;;;;;;;;;;;;;13.63;100.00;98031.22;5105708;28;19931;-68
2023/10/15 05:34:32;;;;;;;;;;;;;;;13.62;100.00;98033.09;5102863;28;19925;-68
2023/10/15 05:36:59;;;;;;;;;;;;;;;13.58;100.00;98032.09;5095056;28;19925;-68
2023/10/15 05:39:27;;;;;;;;;;;;;;;13.55;100.00;98032.63;5105958;28;19967;-68
2023/10/15 05:41:54;;;;;;;;;;;;;;;13.58;100.00;98029.41;5106915;28;19924;-69
2023/10/15 05:44:21;;;;;;;;;;;;;;;13.57;100.00;98029.66;5104082;28;19924;-68
2023/10/15 05:46:47;;;;;;;;;;;;;;;13.51;100.00;98039.63;5103589;28;19929;-68
2023/10/15 05:49:13;;;;;;;;;;;;;;;13.49;100.00;98044.50;5105217;28;19959;-68
2023/10/15 05:51:40;;;;;;;;;;;;;;;13.56;100.00;98031.53;5107145;28;19924;-68
2023/10/15 05:54:06;;;;;;;;;;;;;;;13.58;100.00;98034.75;5106128;28;19935;-68
2023/10/15 05:56:33;;;;;;;;;;;;;;;13.54;100.00;98044.44;5102943;28;19959;-67
2023/10/15 05:59:01;;;;;;;;;;;;;;;13.50;100.00;98046.06;5102619;28;19952;-67
2023/10/15 06:01:28;;;;;;;;;;;;;;;13.42;100.00;98052.84;5106018;28;19940;-67
2023/10/15 06:03:54;;;;;;;;;;;;;;;13.50;100.00;98046.06;5105653;28;19932;-68
2023/10/15 06:06:20;;;;;;;;;;;;;;;13.47;100.00;98055.47;5096076;28;20317;-68
2023/10/15 06:08:47;;;;;;;;;;;;;;;13.47;100.00;98046.63;5102639;28;19928;-68
2023/10/15 06:11:13;;;;;;;;;;;;;;;13.34;100.00;98061.44;5103904;28;19947;-67
2023/10/15 06:13:39;;;;;;;;;;;;;;;13.35;100.00;98067.63;5106072;28;19967;-67
2023/10/15 06:16:07;;;;;;;;;;;;;;;13.41;100.00;98067.31;5105108;28;19935;-67
2023/10/15 06:18:34;;;;;;;;;;;;;;;13.42;100.00;98068.13;5102071;28;19924;-67
2023/10/15 06:21:00;;;;;;;;;;;;;;;13.46;100.00;98075.31;5101985;28;19920;-67
2023/10/15 06:23:27;;;;;;;;;;;;;;;13.41;100.00;98069.19;5105002;28;19924;-68
2023/10/15 06:25:53;;;;;;;;;;;;;;;13.37;100.00;98073.50;5105118;28;20052;-67
2023/10/15 06:28:20;;;;;;;;;;;;;;;13.33;100.00;98075.97;5102716;28;19942;-67
2023/10/15 06:30:46;;;;;;;;;;;;;;;13.35;100.00;98084.53;5099916;28;19933;-67
2023/10/15 06:33:16;;;;;;;;;;;;;;;13.41;100.00;98093.34;5102698;28;19932;-67
2023/10/15 06:35:43;;;;;;;;;;;;;;;13.44;100.00;98093.59;5103145;28;19933;-67
2023/10/15 06:38:09;;;;;;;;;;;;;;;13.45;100.00;98095.22;5098814;28;19926;-67
2023/10/15 06:40:37;;;;;;;;;;;;;;;13.42;100.00;98095.75;5101378;28;19924;-67
2023/10/15 06:43:04;;;;;;;;;;;;;;;13.43;100.00;98099.25;5101598;28;19960;-67
2023/10/15 06:45:31;;;;;;;;;;;;;;;13.36;100.00;98102.22;5105158;28;19992;-67
2023/10/15 06:47:58;;;;;;;;;;;;;;;13.40;100.00;98089.06;5104856;28;19987;-67
2023/10/15 06:50:25;;;;;;;;;;;;;;;13.42;100.00;98095.75;5101787;28;20698;-68
2023/10/15 06:52:52;;;;;;;;;;;;;;;13.42;100.00;98095.75;5101008;28;19943;-68
2023/10/15 06:55:20;;;;;;;;;;;;;;;13.41;100.00;98099.50;5103245;28;19936;-68
2023/10/15 06:57:46;;;;;;;;;;;;;;;13.43;100.00;98104.63;5104486;28;19928;-68
2023/10/15 07:00:21;;;;;;;;;;;;;;;13.42;100.00;98111.84;5103150;28;19924;-68
2023/10/15 07:02:48;;;;;;;;;;;;;;;13.42;100.00;98106.50;5101188;28;20386;-68
2023/10/15 07:05:16;;;;;;;;;;;;;;;13.29;100.00;98119.69;5102724;28;20412;-68
2023/10/15 07:07:45;;;;;;;;;;;;;;;12.99;100.00;98113.34;5096685;28;19951;-68
2023/10/15 07:10:15;;;;;;;;;;;;;;;13.20;100.00;98113.28;5103397;28;19932;-68
2023/10/15 07:12:42;;;;;;;;;;;;;;;13.29;100.00;98114.31;5100915;28;19984;-68
2023/10/15 07:15:09;;;;;;;;;;;;;;;13.34;100.00;98116.97;5101784;28;19995;-68
2023/10/15 07:17:38;;;;;;;;;;;;;;;13.31;100.00;98109.47;5104633;28;19977;-68
2023/10/15 07:20:10;;;;;;;;;;;;;;;13.36;100.00;98112.97;5104176;28;19971;-68
2023/10/15 07:22:37;;;;;;;;;;;;;;;13.32;100.00;98114.59;5101191;28;19928;-68
2023/10/15 07:25:08;;;;;;;;;;;;;;;13.31;100.00;98112.16;5100957;28;19925;-68
2023/10/15 07:27:34;;;;;;;;;;;;;;;13.38;100.00;98110.78;5093611;28;19932;-68
2023/10/15 07:30:01;;;;;;;;;;;;;;;13.40;100.00;98110.53;5100408;28;19921;-68
2023/10/15 07:32:27;;;;;;;;;;;;;;;13.34;100.00;98116.97;5102808;28;19924;-68
2023/10/15 07:34:54;;;;;;;;;;;;;;;13.35;100.00;98110.53;5103727;28;19963;-68
2023/10/15 07:37:20;;;;;;;;;;;;;;;13.40;100.00;98114.00;5091458;28;19927;-68
2023/10/15 07:39:47;;;;;;;;;;;;;;;13.32;100.00;98105.72;5103689;28;19932;-68
2023/10/15 07:42:15;;;;;;;;;;;;;;;13.24;100.00;98117.84;5101925;28;19925;-68
2023/10/15 07:44:41;;;;;;;;;;;;;;;13.33;100.00;98107.34;5100175;28;19931;-68
2023/10/15 07:47:08;;;;;;;;;;;;;;;13.30;100.00;98119.44;5100656;28;19931;-68
2023/10/15 07:49:34;;;;;;;;;;;;;;;13.36;100.00;98114.84;5103516;28;19946;-68
2023/10/15 07:52:01;;;;;;;;;;;;;;;13.28;100.00;98115.41;5103559;28;19924;-68
2023/10/15 07:54:27;;;;;;;;;;;;;;;13.23;100.00;98121.59;5100016;28;19946;-68
2023/10/15 07:56:54;;;;;;;;;;;;;;;13.22;100.00;98125.34;5099841;28;19933;-68
2023/10/15 07:59:22;;;;;;;;;;;;;;;13.31;100.00;98130.94;5102214;28;19920;-68
2023/10/15 08:01:48;;;;;;;;;;;;;;;13.37;100.00;98113.75;5103467;28;19928;-68
2023/10/15 08:04:16;;;;;;;;;;;;;;;13.36;100.00;98118.31;5101383;28;20003;-69
2023/10/15 08:06:43;;;;;;;;;;;;;;;13.30;100.00;98111.38;5091923;28;19931;-69
2023/10/15 08:09:13;;;;;;;;;;;;;;;13.35;100.00;98121.28;5100447;28;19931;-69
2023/10/15 08:11:41;;;;;;;;;;;;;;;13.36;100.00;98118.31;5103043;28;19924;-69
2023/10/15 08:14:07;;;;;;;;;;;;;;;13.39;100.00;98127.69;5102626;28;19946;-69
2023/10/15 08:16:35;;;;;;;;;;;;;;;13.41;100.00;98128.22;5099992;28;19924;-69
2023/10/15 08:19:01;;;;;;;;;;;;;;;13.39;100.00;98133.06;5099685;28;19950;-69
2023/10/15 08:21:27;;;;;;;;;;;;;;;13.34;100.00;98119.66;5103226;28;19977;-69
2023/10/15 08:23:54;;;;;;;;;;;;;;;13.29;100.00;98127.72;5103309;28;19924;-68
2023/10/15 08:26:20;;;;;;;;;;;;;;;13.34;100.00;98119.66;5101059;28;19924;-68
2023/10/15 08:28:48;;;;;;;;;;;;;;;13.39;100.00;98116.97;5099585;28;19947;-67
2023/10/15 08:31:14;;;;;;;;;;;;;;;13.16;100.00;98113.03;5101193;28;19931;-68
2023/10/15 08:33:42;;;;;;;;;;;;;;;13.14;100.00;98107.16;5103324;28;19924;-68
2023/10/15 08:36:08;;;;;;;;;;;;;;;13.29;100.00;98120.50;5094718;28;19947;-68
2023/10/15 08:38:35;;;;;;;;;;;;;;;13.22;100.00;98121.84;5100010;28;19924;-68
2023/10/15 08:41:04;;;;;;;;;;;;;;;13.31;100.00;98125.56;5099761;28;19980;-68
2023/10/15 08:43:32;;;;;;;;;;;;;;;13.36;100.00;98120.19;5092010;28;19924;-68
2023/10/15 08:46:00;;;;;;;;;;;;;;;13.39;100.00;98123.16;5099563;28;19932;-68
2023/10/15 08:48:29;;;;;;;;;;;;;;;13.31;100.00;98125.56;5103156;28;20388;-68
2023/10/15 08:50:58;;;;;;;;;;;;;;;13.07;100.00;98119.19;5103351;28;19928;-68
2023/10/15 08:53:26;;;;;;;;;;;;;;;13.17;100.00;98127.25;5098753;28;19928;-68
2023/10/15 08:55:57;;;;;;;;;;;;;;;13.24;100.00;98131.25;5099820;28;19925;-68
2023/10/15 08:58:25;;;;;;;;;;;;;;;13.25;100.00;98132.03;5102225;28;19930;-68
2023/10/15 09:00:53;;;;;;;;;;;;;;;13.30;100.00;98134.72;5102702;28;19928;-68
2023/10/15 09:03:19;;;;;;;;;;;;;;;13.32;100.00;98121.81;5100257;28;20005;-68
2023/10/15 09:05:52;;;;;;;;;;;;;;;13.23;100.00;98121.59;5097461;28;19948;-68
2023/10/15 09:08:20;;;;;;;;;;;;;;;13.11;100.00;98125.66;5097830;28;19945;-68
2023/10/15 09:10:47;;;;;;;;;;;;;;;13.14;100.00;98130.47;5099505;28;20026;-68
2023/10/15 09:13:18;;;;;;;;;;;;;;;13.28;100.00;98120.75;5100654;28;20329;-68
2023/10/15 09:15:46;;;;;;;;;;;;;;;13.17;100.00;98120.00;5102641;28;20007;-68
2023/10/15 09:18:15;;;;;;;;;;;;;;;13.11;100.00;98126.47;5101533;28;19958;-68
2023/10/15 09:20:42;;;;;;;;;;;;;;;13.17;100.00;98121.88;5098966;28;19949;-68
2023/10/15 09:23:09;;;;;;;;;;;;;;;13.18;100.00;98116.25;5099802;28;19936;-68
2023/10/15 09:25:37;;;;;;;;;;;;;;;13.14;100.00;98109.03;5102870;28;19927;-68
2023/10/15 09:28:05;;;;;;;;;;;;;;;13.28;100.00;98112.72;5102666;28;19931;-68
2023/10/15 09:30:31;;;;;;;;;;;;;;;13.35;100.00;98115.91;5090862;28;19931;-68
2023/10/15 09:32:58;;;;;;;;;;;;;;;13.23;100.00;98104.69;5098933;28;19924;-68
2023/10/15 09:35:24;;;;;;;;;;;;;;;13.21;100.00;98114.91;5101706;28;19950;-68
2023/10/15 09:37:53;;;;;;;;;;;;;;;13.33;100.00;98115.38;5094429;28;19924;-68
2023/10/15 09:40:20;;;;;;;;;;;;;;;13.44;100.00;98111.56;5099762;28;19985;-68
2023/10/15 09:42:52;;;;;;;;;;;;;;;13.51;100.00;98115.56;5098874;28;19939;-69
2023/10/15 09:45:19;;;;;;;;;;;;;;;13.44;100.00;98106.19;5100765;28;19929;-69
2023/10/15 09:47:49;;;;;;;;;;;;;;;13.28;100.00;98107.34;5102248;28;19991;-69
2023/10/15 09:50:24;;;;;;;;;;;;;;;13.24;100.00;98109.81;5100567;28;19962;-68
2023/10/15 09:52:55;;;;;;;;;;;;;;;13.40;100.00;98114.00;5098991;28;19924;-68
2023/10/15 09:55:23;;;;;;;;;;;;;;;13.35;100.00;98118.59;5102064;28;19924;-68
2023/10/15 09:57:52;;;;;;;;;;;;;;;13.29;100.00;98111.66;5102019;28;19987;-68
2023/10/15 10:00:32;;;;;;;;;;;;;;;13.34;100.00;98108.94;5100099;28;19924;-68
2023/10/15 10:03:08;;;;;;;;;;;;;;;13.42;100.00;98111.84;5098795;28;19935;-69
2023/10/15 10:05:44;;;;;;;;;;;;;;;13.55;100.00;98123.88;5094315;28;19924;-69
2023/10/15 10:08:16;;;;;;;;;;;;;;;13.52;100.00;98129.78;5100542;28;19950;-69
2023/10/15 10:10:52;;;;;;;;;;;;;;;13.56;100.00;98117.41;5105486;28;19920;-69
2023/10/15 10:13:29;;;;;;;;;;;;;;;13.59;100.00;98116.84;5103450;28;19927;-69
2023/10/15 10:15:57;;;;;;;;;;;;;;;13.65;100.00;98112.28;5102177;28;19967;-69
2023/10/15 10:18:24;;;;;;;;;;;;;;;13.65;100.00;98117.66;5105172;28;20037;-69
2023/10/15 10:20:51;;;;;;;;;;;;;;;13.57;100.00;98112.84;5106219;28;19932;-68
2023/10/15 10:23:18;;;;;;;;;;;;;;;13.61;100.00;98113.91;5103504;28;19924;-67
2023/10/15 10:25:45;;;;;;;;;;;;;;;13.46;100.00;98109.44;5102276;28;19925;-67
2023/10/15 10:28:13;;;;;;;;;;;;;;;13.38;100.00;98113.47;5103131;28;19924;-68
2023/10/15 10:30:51;;;;;;;;;;;;;;;13.50;100.00;98113.16;5104338;28;20588;-68
2023/10/15 10:33:32;;;;;;;;;;;;;;;13.60;100.00;98110.41;5103373;28;19924;-68
2023/10/15 10:36:00;;;;;;;;;;;;;;;13.64;100.00;98106.09;5098015;28;19951;-69
2023/10/15 10:38:26;;;;;;;;;;;;;;;13.55;100.00;98102.41;5100494;28;19928;-69
2023/10/15 10:40:56;;;;;;;;;;;;;;;13.50;100.00;98091.69;5101707;28;19925;-67
2023/10/15 10:43:24;;;;;;;;;;;;;;;13.73;100.00;98095.56;5103128;28;19925;-68
2023/10/15 10:45:52;;;;;;;;;;;;;;;13.77;100.00;98089.34;5104166;28;19962;-68
2023/10/15 10:48:22;;;;;;;;;;;;;;;13.61;100.00;98085.19;5101947;28;19948;-69
2023/10/15 10:50:49;;;;;;;;;;;;;;;13.77;100.00;98086.66;5101627;28;19998;-69
2023/10/15 10:53:18;;;;;;;;;;;;;;;13.85;100.00;98080.72;5102954;28;19932;-68
2023/10/15 10:55:44;;;;;;;;;;;;;;;13.86;100.00;98076.97;5105035;28;19979;-68
2023/10/15 10:58:23;;;;;;;;;;;;;;;13.89;100.00;98089.84;5104018;28;19920;-68
2023/10/15 11:00:49;;;;;;;;;;;;;;;13.76;100.00;98084.28;5102055;28;19935;-68
2023/10/15 11:03:18;;;;;;;;;;;;;;;13.73;100.00;98079.47;5103537;28;19924;-68
2023/10/15 11:05:44;;;;;;;;;;;;;;;13.77;100.00;98073.25;5102903;28;19924;-68
2023/10/15 11:08:17;;;;;;;;;;;;;;;13.76;100.00;98084.28;5099280;28;19935;-68
2023/10/15 11:10:45;;;;;;;;;;;;;;;13.69;100.00;98076.53;5101831;28;20515;-68
2023/10/15 11:13:11;;;;;;;;;;;;;;;13.72;100.00;98075.97;5102037;28;19924;-68
2023/10/15 11:15:38;;;;;;;;;;;;;;;13.78;100.00;98074.88;5103827;28;19958;-68
2023/10/15 11:18:08;;;;;;;;;;;;;;;13.69;100.00;98073.84;5104328;28;19924;-68
2023/10/15 11:20:36;;;;;;;;;;;;;;;13.71;100.00;98065.53;5100929;28;19924;-68
2023/10/15 11:23:05;;;;;;;;;;;;;;;13.61;100.00;98055.69;5101009;28;19988;-69
2023/10/15 11:25:34;;;;;;;;;;;;;;;13.83;100.00;98064.09;5093110;28;19925;-69
2023/10/15 11:28:02;;;;;;;;;;;;;;;13.89;100.00;98052.25;5100204;28;19984;-69
2023/10/15 11:30:29;;;;;;;;;;;;;;;13.90;100.00;98056.53;5104113;28;19924;-67
2023/10/15 11:32:55;;;;;;;;;;;;;;;13.80;100.00;98047.75;5103885;28;19935;-68
2023/10/15 11:35:22;;;;;;;;;;;;;;;13.74;100.00;98044.28;5101271;28;20022;-68
2023/10/15 11:37:51;;;;;;;;;;;;;;;13.68;100.00;98050.00;5094195;28;19924;-68
2023/10/15 11:40:20;;;;;;;;;;;;;;;13.63;100.00;98048.13;5101807;28;19979;-68
2023/10/15 11:42:47;;;;;;;;;;;;;;;13.55;100.00;98048.75;5100286;28;19928;-69
2023/10/15 11:45:18;;;;;;;;;;;;;;;13.59;100.00;98051.63;5101430;28;19920;-68
2023/10/15 11:47:45;;;;;;;;;;;;;;;13.56;100.00;98053.00;5103806;28;19924;-68
2023/10/15 11:50:12;;;;;;;;;;;;;;;13.62;100.00;98053.75;5102611;28;19991;-68
2023/10/15 11:52:40;;;;;;;;;;;;;;;13.64;100.00;98040.88;5100043;28;19925;-68
2023/10/15 11:55:10;;;;;;;;;;;;;;;13.67;100.00;98049.19;5100622;28;19924;-68
2023/10/15 11:57:40;;;;;;;;;;;;;;;13.69;100.00;98046.22;5102157;28;20506;-68
2023/10/15 12:00:09;;;;;;;;;;;;;;;13.76;100.00;98058.25;5102722;28;19946;-68
2023/10/15 12:02:35;;;;;;;;;;;;;;;13.77;100.00;98069.78;5100020;28;19996;-68
2023/10/15 12:05:09;;;;;;;;;;;;;;;13.69;100.00;98100.69;5100281;28;19924;-68
2023/10/15 12:07:37;;;;;;;;;;;;;;;12.76;100.00;98102.41;5088643;28;19920;-68
2023/10/15 12:10:14;;;;;;;;;;;;;;;12.54;100.00;98120.66;5103660;28;19927;-68
2023/10/15 12:12:42;;;;;;;;;;;;;;;12.50;100.00;98107.03;5093360;28;19992;-67
2023/10/15 12:15:09;;;;;;;;;;;;;;;11.93;100.00;98077.06;5100124;28;19924;-67
2023/10/15 12:17:35;;;;;;;;;;;;;;;12.36;100.00;98076.50;5103368;28;20007;-67
2023/10/15 12:20:06;;;;;;;;;;;;;;;12.80;100.00;98050.69;5103613;28;19950;-68
2023/10/15 12:22:33;;;;;;;;;;;;;;;13.09;100.00;98040.13;5092138;28;19925;-67
2023/10/15 12:25:00;;;;;;;;;;;;;;;13.31;100.00;98043.22;5100663;28;19924;-67
2023/10/15 12:27:28;;;;;;;;;;;;;;;13.50;100.00;98038.81;5102970;28;19946;-68
2023/10/15 12:29:56;;;;;;;;;;;;;;;13.57;100.00;98035.84;5103918;28;19928;-68
2023/10/15 12:32:22;;;;;;;;;;;;;;;13.69;100.00;98041.66;5100832;28;19928;-67
2023/10/15 12:34:49;;;;;;;;;;;;;;;13.74;100.00;98038.13;5099911;28;19924;-69
2023/10/15 12:37:15;;;;;;;;;;;;;;;13.78;100.00;98031.09;5092860;28;19924;-69
2023/10/15 12:39:44;;;;;;;;;;;;;;;13.84;100.00;98030.78;5103109;28;19928;-69
2023/10/15 12:42:11;;;;;;;;;;;;;;;13.83;100.00;98037.22;5102259;28;20094;-69